createdAt,value
2018-08-19T00:02:21.186Z,18.80
2018-08-19T00:05:08.633Z,18.80
2018-08-19T00:07:38.017Z,18.80
2018-08-19T00:10:07.573Z,18.80
2018-08-19T00:12:47.345Z,18.70
2018-08-19T00:15:16.809Z,18.70
2018-08-19T00:17:46.112Z,18.70
2018-08-19T00:20:15.581Z,18.70
2018-08-19T00:22:45.125Z,18.60
2018-08-19T00:25:30.835Z,18.60
2018-08-19T00:28:00.589Z,18.50
2018-08-19T00:30:32.498Z,18.60
2018-08-19T00:33:02.337Z,18.60
2018-08-19T00:35:32.357Z,18.50
2018-08-19T00:38:02.026Z,18.50
2018-08-19T00:40:31.589Z,18.50
2018-08-19T00:43:01.020Z,18.50
2018-08-19T00:45:30.390Z,18.40
2018-08-19T00:47:59.761Z,18.50
2018-08-19T00:50:29.110Z,18.50
2018-08-19T00:52:58.507Z,18.40
2018-08-19T00:55:31.983Z,18.40
2018-08-19T00:58:01.374Z,18.30
2018-08-19T01:00:30.702Z,18.30
2018-08-19T01:03:00.067Z,18.30
2018-08-19T01:05:29.543Z,18.20
2018-08-19T01:07:58.964Z,18.20
2018-08-19T01:10:28.343Z,18.20
2018-08-19T01:12:57.755Z,18.20
2018-08-19T01:15:27.453Z,18.20
2018-08-19T01:17:58.064Z,18.10
2018-08-19T01:20:27.428Z,18.00
2018-08-19T01:22:56.785Z,18.10
2018-08-19T01:25:26.179Z,18.00
2018-08-19T01:27:55.923Z,18.10
2018-08-19T01:30:27.002Z,18.10
2018-08-19T01:32:56.389Z,18.00
2018-08-19T01:35:31.039Z,18.00
2018-08-19T01:38:00.546Z,18.00
2018-08-19T01:40:29.878Z,18.00
2018-08-19T01:42:59.201Z,17.90
2018-08-19T01:45:28.575Z,17.90
2018-08-19T01:47:57.927Z,17.90
2018-08-19T01:50:27.335Z,17.80
2018-08-19T01:52:56.633Z,17.80
2018-08-19T01:55:25.972Z,17.80
2018-08-19T01:57:56.790Z,17.80
2018-08-19T02:00:26.154Z,17.70
2018-08-19T02:02:59.703Z,17.80
2018-08-19T02:05:29.130Z,17.70
2018-08-19T02:08:01.504Z,17.70
2018-08-19T02:10:32.266Z,17.70
2018-08-19T02:13:02.077Z,17.70
2018-08-19T02:15:32.321Z,17.70
2018-08-19T02:18:06.073Z,17.60
2018-08-19T02:20:42.382Z,17.60
2018-08-19T02:23:12.815Z,17.60
2018-08-19T02:25:45.337Z,17.60
2018-08-19T02:28:16.873Z,17.60
2018-08-19T02:31:04.429Z,17.50
2018-08-19T02:33:36.003Z,17.50
2018-08-19T02:36:07.065Z,17.50
2018-08-19T02:38:37.765Z,17.40
2018-08-19T02:41:07.542Z,17.40
2018-08-19T02:43:46.312Z,17.40
2018-08-19T02:46:15.673Z,17.40
2018-08-19T02:48:49.353Z,17.40
2018-08-19T02:51:20.887Z,17.40
2018-08-19T02:53:51.234Z,17.40
2018-08-19T02:56:21.037Z,17.40
2018-08-19T02:58:50.398Z,17.40
2018-08-19T03:01:19.930Z,17.40
2018-08-19T03:03:49.866Z,17.40
2018-08-19T03:06:19.890Z,17.30
2018-08-19T03:09:00.069Z,17.30
2018-08-19T03:11:29.478Z,17.30
2018-08-19T03:13:58.831Z,17.30
2018-08-19T03:16:28.207Z,17.30
2018-08-19T03:18:57.589Z,17.20
2018-08-19T03:21:26.944Z,17.20
2018-08-19T03:23:56.330Z,17.20
2018-08-19T03:26:25.706Z,17.20
2018-08-19T03:28:55.037Z,17.10
2018-08-19T03:31:24.349Z,17.10
2018-08-19T03:33:54.036Z,17.10
2018-08-19T03:36:23.419Z,17.10
2018-08-19T03:38:55.338Z,17.10
2018-08-19T03:41:24.643Z,17.00
2018-08-19T03:43:59.070Z,17.00
2018-08-19T03:46:29.722Z,17.00
2018-08-19T03:48:59.081Z,17.00
2018-08-19T03:51:28.443Z,17.00
2018-08-19T03:53:57.806Z,16.90
2018-08-19T03:56:27.993Z,16.90
2018-08-19T03:58:59.482Z,17.00
2018-08-19T04:01:43.210Z,17.00
2018-08-19T04:04:14.474Z,17.00
2018-08-19T04:06:44.085Z,17.00
2018-08-19T04:09:13.462Z,17.00
2018-08-19T04:11:42.821Z,17.00
2018-08-19T04:14:27.026Z,17.10
2018-08-19T04:16:59.064Z,17.10
2018-08-19T04:19:29.105Z,17.10
2018-08-19T04:22:02.163Z,17.10
2018-08-19T04:24:31.868Z,17.00
2018-08-19T04:27:09.375Z,17.00
2018-08-19T04:29:39.185Z,17.10
2018-08-19T04:32:16.280Z,17.00
2018-08-19T04:34:45.613Z,17.10
2018-08-19T04:37:15.817Z,17.10
2018-08-19T04:39:45.176Z,17.10
2018-08-19T04:42:14.699Z,17.20
2018-08-19T04:44:43.905Z,17.20
2018-08-19T04:47:30.310Z,17.20
2018-08-19T04:49:59.629Z,17.20
2018-08-19T04:52:28.944Z,17.20
2018-08-19T04:54:58.279Z,17.20
2018-08-19T04:57:27.608Z,17.20
2018-08-19T04:59:56.921Z,17.20
2018-08-19T05:02:26.284Z,17.30
2018-08-19T05:04:55.562Z,17.20
2018-08-19T05:07:24.874Z,17.30
2018-08-19T05:09:54.162Z,17.30
2018-08-19T05:12:23.486Z,17.20
2018-08-19T05:14:52.817Z,17.30
2018-08-19T05:17:22.100Z,17.30
2018-08-19T05:19:52.724Z,17.30
2018-08-19T05:22:22.097Z,17.30
2018-08-19T05:24:51.422Z,17.30
2018-08-19T05:27:20.796Z,17.30
2018-08-19T05:29:50.195Z,17.40
2018-08-19T05:32:20.110Z,17.30
2018-08-19T05:34:50.134Z,17.40
2018-08-19T05:50:49.702Z,17.40
2018-08-19T05:53:20.531Z,17.60
2018-08-19T05:55:50.266Z,17.60
2018-08-19T05:58:20.714Z,17.70
2018-08-19T06:00:53.303Z,17.70
2018-08-19T06:03:22.998Z,17.80
2018-08-19T06:05:52.315Z,17.90
2018-08-19T06:08:21.662Z,17.90
2018-08-19T06:10:51.057Z,17.90
2018-08-19T06:13:20.406Z,17.90
2018-08-19T06:15:50.201Z,18.00
2018-08-19T06:18:20.193Z,18.00
2018-08-19T06:20:50.259Z,18.10
2018-08-19T06:23:22.088Z,18.20
2018-08-19T06:25:51.442Z,18.20
2018-08-19T06:28:20.823Z,18.30
2018-08-19T06:30:50.314Z,18.30
2018-08-19T06:33:20.281Z,18.40
2018-08-19T06:35:50.332Z,18.40
2018-08-19T06:38:20.354Z,18.50
2018-08-19T06:40:50.312Z,18.50
2018-08-19T06:43:20.221Z,18.50
2018-08-19T06:45:50.276Z,18.60
2018-08-19T06:48:20.291Z,18.70
2018-08-19T06:50:50.235Z,18.80
2018-08-19T06:53:25.540Z,18.90
2018-08-19T06:55:54.932Z,19.00
2018-08-19T06:58:25.717Z,19.10
2018-08-19T07:00:55.030Z,19.10
2018-08-19T07:03:24.406Z,19.30
2018-08-19T07:08:53.843Z,19.30
2018-08-19T07:11:23.380Z,19.40
2018-08-19T07:13:52.749Z,19.40
2018-08-19T07:16:22.181Z,19.30
2018-08-19T07:18:51.529Z,19.40
2018-08-19T07:21:20.840Z,19.50
2018-08-19T07:23:50.467Z,19.60
2018-08-19T07:26:20.334Z,19.70
2018-08-19T07:28:50.312Z,19.70
2018-08-19T07:31:20.402Z,19.80
2018-08-19T07:33:50.359Z,19.90
2018-08-19T07:36:20.438Z,20.00
2018-08-19T07:38:50.370Z,20.10
2018-08-19T07:41:20.354Z,20.20
2018-08-19T07:43:50.425Z,20.30
2018-08-19T07:46:20.329Z,20.40
2018-08-19T07:48:50.353Z,20.70
2018-08-19T07:51:20.349Z,20.70
2018-08-19T07:53:50.427Z,20.80
2018-08-19T07:56:20.372Z,21.00
2018-08-19T07:58:54.597Z,21.30
2018-08-19T08:01:23.960Z,21.50
2018-08-19T08:03:53.622Z,21.60
2018-08-19T08:06:22.941Z,21.80
2018-08-19T08:08:52.260Z,21.90
2018-08-19T08:11:21.573Z,21.80
2018-08-19T08:13:50.953Z,21.70
2018-08-19T08:16:20.434Z,21.60
2018-08-19T08:18:50.646Z,21.90
2018-08-19T08:21:20.512Z,22.00
2018-08-19T08:23:50.509Z,22.00
2018-08-19T08:26:20.383Z,21.90
2018-08-19T08:28:55.662Z,21.80
2018-08-19T08:31:24.939Z,21.80
2018-08-19T08:33:54.281Z,21.90
2018-08-19T08:36:23.625Z,21.90
2018-08-19T08:38:52.916Z,22.10
2018-08-19T08:41:22.289Z,22.10
2018-08-19T08:43:51.601Z,22.30
2018-08-19T08:46:20.927Z,22.50
2018-08-19T08:48:50.491Z,22.60
2018-08-19T08:51:20.473Z,22.90
2018-08-19T08:53:50.536Z,23.50
2018-08-19T08:56:20.614Z,23.80
2018-08-19T08:58:50.575Z,23.80
2018-08-19T09:01:20.491Z,23.70
2018-08-19T09:03:50.500Z,23.60
2018-08-19T09:06:25.653Z,23.10
2018-08-19T09:08:54.951Z,23.20
2018-08-19T09:11:24.320Z,23.20
2018-08-19T09:13:54.131Z,23.10
2018-08-19T09:16:23.450Z,23.20
2018-08-19T09:18:52.864Z,23.20
2018-08-19T09:21:22.249Z,23.30
2018-08-19T09:23:51.559Z,23.00
2018-08-19T09:26:20.875Z,22.90
2018-08-19T09:28:51.220Z,23.00
2018-08-19T09:34:00.526Z,23.20
2018-08-19T09:36:29.829Z,23.80
2018-08-19T09:38:59.201Z,24.00
2018-08-19T09:41:28.553Z,24.20
2018-08-19T09:43:57.871Z,23.90
2018-08-19T09:46:27.243Z,23.60
2018-08-19T09:48:56.633Z,23.60
2018-08-19T09:51:26.008Z,23.70
2018-08-19T09:53:55.324Z,23.90
2018-08-19T09:56:28.741Z,23.80
2018-08-19T09:59:05.377Z,23.80
2018-08-19T10:01:40.816Z,23.80
2018-08-19T10:04:25.463Z,23.70
2018-08-19T10:07:02.380Z,23.60
2018-08-19T10:09:31.681Z,23.30
2018-08-19T10:12:00.981Z,23.20
2018-08-19T10:14:30.318Z,23.40
2018-08-19T10:16:59.668Z,23.60
2018-08-19T10:19:28.964Z,23.60
2018-08-19T10:21:58.321Z,23.60
2018-08-19T10:24:28.948Z,23.50
2018-08-19T10:26:58.653Z,23.60
2018-08-19T10:29:27.971Z,23.80
2018-08-19T10:32:00.845Z,23.80
2018-08-19T10:34:34.188Z,23.70
2018-08-19T10:37:04.005Z,23.60
2018-08-19T10:39:33.312Z,23.70
2018-08-19T10:42:20.981Z,23.70
2018-08-19T10:44:51.813Z,23.80
2018-08-19T10:47:21.756Z,24.10
2018-08-19T10:49:59.769Z,24.60
2018-08-19T10:52:30.602Z,24.80
2018-08-19T10:55:01.095Z,24.80
2018-08-19T10:57:30.447Z,24.80
2018-08-19T11:00:00.130Z,25.00
2018-08-19T11:02:29.486Z,25.20
2018-08-19T11:05:00.185Z,25.20
2018-08-19T11:07:29.488Z,25.50
2018-08-19T11:10:27.298Z,25.60
2018-08-19T11:12:57.748Z,25.40
2018-08-19T11:15:44.253Z,25.30
2018-08-19T11:18:32.113Z,25.50
2018-08-19T11:21:05.925Z,26.30
2018-08-19T11:23:38.463Z,26.90
2018-08-19T11:26:08.235Z,27.40
2018-08-19T11:28:40.058Z,27.20
2018-08-19T11:31:17.063Z,27.10
2018-08-19T11:33:46.422Z,26.70
2018-08-19T11:36:15.708Z,26.40
2018-08-19T11:38:51.318Z,26.20
2018-08-19T11:41:21.215Z,26.10
2018-08-19T11:43:51.259Z,26.20
2018-08-19T11:46:20.888Z,25.90
2018-08-19T11:48:55.394Z,25.60
2018-08-19T11:51:55.024Z,25.70
2018-08-19T11:54:25.183Z,26.00
2018-08-19T11:57:02.204Z,26.50
2018-08-19T11:59:39.093Z,26.70
2018-08-19T12:02:18.649Z,26.80
2018-08-19T12:04:48.277Z,26.80
2018-08-19T12:07:18.146Z,26.80
2018-08-19T12:09:54.911Z,26.90
2018-08-19T12:12:43.216Z,27.00
2018-08-19T12:15:19.322Z,26.70
2018-08-19T12:17:48.662Z,26.20
2018-08-19T12:20:23.072Z,26.00
2018-08-19T12:22:52.382Z,26.30
2018-08-19T12:40:29.843Z,26.80
2018-08-19T12:42:59.171Z,26.60
2018-08-19T12:45:28.490Z,26.80
2018-08-19T12:48:04.417Z,27.10
2018-08-19T12:50:33.751Z,26.90
2018-08-19T12:53:03.084Z,26.80
2018-08-19T12:55:32.486Z,26.80
2018-08-19T12:58:07.104Z,26.70
2018-08-19T13:04:51.261Z,26.40
2018-08-19T13:07:20.955Z,26.40
2018-08-19T13:09:51.465Z,26.60
2018-08-19T13:12:20.973Z,26.50
2018-08-19T13:14:51.102Z,26.50
2018-08-19T13:17:20.982Z,26.20
2018-08-19T13:19:59.071Z,26.20
2018-08-19T13:22:28.903Z,26.30
2018-08-19T13:24:58.256Z,26.20
2018-08-19T13:27:27.578Z,26.30
2018-08-19T13:29:56.878Z,26.30
2018-08-19T13:32:26.169Z,26.50
2018-08-19T13:34:55.490Z,26.50
2018-08-19T13:37:24.886Z,26.40
2018-08-19T13:39:54.193Z,26.50
2018-08-19T13:42:23.496Z,26.50
2018-08-19T13:44:53.980Z,26.50
2018-08-19T13:47:23.280Z,26.50
2018-08-19T13:49:52.541Z,26.30
2018-08-19T13:52:21.876Z,26.30
2018-08-19T13:55:01.535Z,26.30
2018-08-19T13:57:30.884Z,26.20
2018-08-19T14:00:00.290Z,26.20
2018-08-19T14:02:29.605Z,26.10
2018-08-19T14:04:58.941Z,26.10
2018-08-19T14:07:28.237Z,26.10
2018-08-19T14:09:57.562Z,25.90
2018-08-19T14:12:26.971Z,26.00
2018-08-19T14:14:56.899Z,26.00
2018-08-19T14:17:26.205Z,25.90
2018-08-19T14:19:55.534Z,25.80
2018-08-19T14:22:24.897Z,25.80
2018-08-19T14:24:54.173Z,25.70
2018-08-19T14:27:23.542Z,25.80
2018-08-19T14:29:52.876Z,25.70
2018-08-19T14:32:35.171Z,25.60
2018-08-19T14:35:05.053Z,25.60
2018-08-19T14:37:34.416Z,25.50
2018-08-19T14:40:04.948Z,25.50
2018-08-19T14:42:34.195Z,25.50
2018-08-19T14:45:03.594Z,25.50
2018-08-19T14:47:32.979Z,25.60
2018-08-19T14:50:02.324Z,25.60
2018-08-19T14:52:31.663Z,25.70
2018-08-19T14:55:00.993Z,25.50
2018-08-19T14:57:30.321Z,25.50
2018-08-19T14:59:59.699Z,25.50
2018-08-19T15:02:29.071Z,25.40
2018-08-19T15:04:58.420Z,25.40
2018-08-19T15:07:27.747Z,25.40
2018-08-19T15:09:57.201Z,25.40
2018-08-19T15:12:27.193Z,25.30
2018-08-19T15:14:59.964Z,25.30
2018-08-19T15:17:29.312Z,25.30
2018-08-19T15:19:58.714Z,25.30
2018-08-19T15:22:28.058Z,25.20
2018-08-19T15:24:57.363Z,25.20
2018-08-19T15:27:26.673Z,25.20
2018-08-19T15:29:56.008Z,25.20
2018-08-19T15:32:25.709Z,25.20
2018-08-19T15:34:54.820Z,25.10
2018-08-19T15:37:24.201Z,25.10
2018-08-19T15:39:53.531Z,25.10
2018-08-19T15:42:22.965Z,25.20
2018-08-19T15:44:52.848Z,25.10
2018-08-19T15:47:22.193Z,25.20
2018-08-19T15:50:09.598Z,25.10
2018-08-19T15:52:39.107Z,25.10
2018-08-19T15:55:08.471Z,25.00
2018-08-19T15:57:37.766Z,25.00
2018-08-19T16:00:08.254Z,25.00
2018-08-19T16:02:37.563Z,25.00
2018-08-19T16:05:22.045Z,25.00
2018-08-19T16:07:51.446Z,24.90
2018-08-19T16:10:21.600Z,25.00
2018-08-19T16:12:52.620Z,24.90
2018-08-19T16:15:24.100Z,24.90
2018-08-19T16:18:00.146Z,24.90
2018-08-19T16:20:29.582Z,24.90
2018-08-19T16:22:59.052Z,24.80
2018-08-19T16:25:28.430Z,24.80
2018-08-19T16:27:57.762Z,24.80
2018-08-19T16:30:27.054Z,24.80
2018-08-19T16:32:56.491Z,24.70
2018-08-19T16:35:25.874Z,24.70
2018-08-19T16:37:55.218Z,24.70
2018-08-19T16:40:24.554Z,24.70
2018-08-19T16:42:53.889Z,24.70
2018-08-19T16:45:23.248Z,24.70
2018-08-19T16:47:52.616Z,24.60
2018-08-19T16:50:22.055Z,24.60
2018-08-19T16:52:51.614Z,24.70
2018-08-19T16:55:21.607Z,24.70
2018-08-19T16:57:51.619Z,24.60
2018-08-19T17:00:21.549Z,24.60
2018-08-19T17:02:51.653Z,24.60
2018-08-19T17:05:31.881Z,24.60
2018-08-19T17:08:01.189Z,24.60
2018-08-19T17:10:30.810Z,24.60
2018-08-19T17:13:00.193Z,24.60
2018-08-19T17:15:29.858Z,24.50
2018-08-19T17:17:59.790Z,24.50
2018-08-19T17:20:29.109Z,24.50
2018-08-19T17:22:58.479Z,24.50
2018-08-19T17:25:28.275Z,24.40
2018-08-19T17:28:04.481Z,24.30
2018-08-19T17:30:34.083Z,24.20
2018-08-19T17:33:09.472Z,24.10
2018-08-19T17:35:40.206Z,24.00
2018-08-19T17:38:09.580Z,23.90
2018-08-19T17:40:38.945Z,23.80
2018-08-19T17:43:08.516Z,23.70
2018-08-19T17:45:37.974Z,23.60
2018-08-19T17:48:07.322Z,23.50
2018-08-19T17:50:39.301Z,23.50
2018-08-19T17:53:09.084Z,23.40
2018-08-19T17:55:38.413Z,23.30
2018-08-19T17:58:08.133Z,23.30
2018-08-19T18:00:37.472Z,23.20
2018-08-19T18:03:06.894Z,23.20
2018-08-19T18:05:36.276Z,23.20
2018-08-19T18:08:05.620Z,23.20
2018-08-19T18:10:35.068Z,23.10
2018-08-19T18:13:04.454Z,23.00
2018-08-19T18:15:33.834Z,22.90
2018-08-19T18:18:06.485Z,22.90
2018-08-19T18:20:38.129Z,22.80
2018-08-19T18:23:15.015Z,22.80
2018-08-19T18:25:48.691Z,22.80
2018-08-19T18:28:25.353Z,22.70
2018-08-19T18:31:01.247Z,22.70
2018-08-19T18:33:30.606Z,22.70
2018-08-19T18:36:00.034Z,22.70
2018-08-19T18:38:31.878Z,22.70
2018-08-19T18:41:01.183Z,22.60
2018-08-19T18:43:30.475Z,22.60
2018-08-19T18:45:59.812Z,22.50
2018-08-19T18:48:29.023Z,22.50
2018-08-19T18:50:58.337Z,22.50
2018-08-19T18:53:28.728Z,22.40
2018-08-19T18:55:58.087Z,22.40
2018-08-19T18:58:27.422Z,22.40
2018-08-19T19:00:59.727Z,22.30
2018-08-19T19:03:36.242Z,22.30
2018-08-19T19:06:05.561Z,22.30
2018-08-19T19:08:35.033Z,22.40
2018-08-19T19:11:05.577Z,22.30
2018-08-19T19:13:35.869Z,22.40
2018-08-19T19:16:05.217Z,22.40
2018-08-19T19:18:34.594Z,22.30
2018-08-19T19:21:05.547Z,22.30
2018-08-19T19:23:39.279Z,22.20
2018-08-19T19:26:09.226Z,22.20
2018-08-19T19:28:38.636Z,22.20
2018-08-19T19:31:13.313Z,22.20
2018-08-19T19:33:42.679Z,22.10
2018-08-19T19:36:17.278Z,22.10
2018-08-19T19:38:52.014Z,22.10
2018-08-19T19:41:32.677Z,22.10
2018-08-19T19:44:23.567Z,22.10
2018-08-19T19:46:53.938Z,22.00
2018-08-19T19:49:23.642Z,22.00
2018-08-19T19:51:57.443Z,22.00
2018-08-19T19:54:28.255Z,22.00
2018-08-19T19:56:57.593Z,21.90
2018-08-19T19:59:29.855Z,21.90
2018-08-19T20:01:59.238Z,21.90
2018-08-19T20:04:28.471Z,21.90
2018-08-19T20:06:57.841Z,21.90
2018-08-19T20:09:27.177Z,21.80
2018-08-19T20:11:56.448Z,21.80
2018-08-19T20:14:25.787Z,21.80
2018-08-19T20:16:55.094Z,21.80
2018-08-19T20:19:24.394Z,21.80
2018-08-19T20:21:53.711Z,21.80
2018-08-19T20:24:22.999Z,21.80
2018-08-19T20:26:52.307Z,21.80
2018-08-19T20:29:21.996Z,21.70
2018-08-19T20:31:52.053Z,21.70
2018-08-19T20:34:22.048Z,21.70
2018-08-19T20:36:52.083Z,21.70
2018-08-19T20:39:22.065Z,21.70
2018-08-19T20:41:55.009Z,21.70
2018-08-19T20:44:24.337Z,21.70
2018-08-19T20:46:57.882Z,21.60
2018-08-19T20:49:27.934Z,21.60
2018-08-19T20:51:57.726Z,21.70
2018-08-19T20:54:27.057Z,21.60
2018-08-19T20:56:56.341Z,21.60
2018-08-19T20:59:35.075Z,21.60
2018-08-19T21:02:05.754Z,21.60
2018-08-19T21:04:35.118Z,21.60
2018-08-19T21:07:05.425Z,21.60
2018-08-19T21:09:35.941Z,21.60
2018-08-19T21:12:05.301Z,21.60
2018-08-19T21:14:34.731Z,21.60
2018-08-19T21:17:05.618Z,21.60
2018-08-19T21:19:35.444Z,21.60
2018-08-19T21:22:04.758Z,21.60
2018-08-19T21:24:34.064Z,21.60
2018-08-19T21:27:03.620Z,21.60
2018-08-19T21:29:33.194Z,21.60
2018-08-19T21:32:02.488Z,21.60
2018-08-19T21:34:31.816Z,21.60
2018-08-19T21:37:01.244Z,21.50
2018-08-19T21:39:30.575Z,21.50
2018-08-19T21:42:00.425Z,21.50
2018-08-19T21:44:29.782Z,21.50
2018-08-19T21:46:59.111Z,21.50
2018-08-19T21:49:28.418Z,21.50
2018-08-19T21:51:57.775Z,21.50
2018-08-19T21:54:27.050Z,21.40
2018-08-19T21:56:56.351Z,21.40
2018-08-19T21:59:25.955Z,21.40
2018-08-19T22:01:57.415Z,21.30
2018-08-19T22:04:26.937Z,21.30
2018-08-19T22:06:56.327Z,21.30
2018-08-19T22:09:36.468Z,21.30
2018-08-19T22:12:07.528Z,21.30
2018-08-19T22:14:36.832Z,21.20
2018-08-19T22:17:09.121Z,21.20
2018-08-19T22:19:38.844Z,21.20
2018-08-19T22:22:08.451Z,21.20
2018-08-19T22:24:37.989Z,21.20
2018-08-19T22:27:16.477Z,21.20
2018-08-19T22:29:45.798Z,21.20
2018-08-19T22:32:15.076Z,21.20
2018-08-19T22:34:44.373Z,21.20
2018-08-19T22:37:13.721Z,21.10
2018-08-19T22:39:43.069Z,21.10
2018-08-19T22:42:12.354Z,21.10
2018-08-19T22:44:41.698Z,21.10
2018-08-19T22:47:10.996Z,21.00
2018-08-19T22:49:40.313Z,21.00
2018-08-19T22:52:21.980Z,21.00
2018-08-19T22:54:55.439Z,21.00
2018-08-19T22:57:25.111Z,21.00
2018-08-19T22:59:54.590Z,21.00
2018-08-19T23:02:24.285Z,21.00
2018-08-19T23:04:53.638Z,21.00
2018-08-19T23:07:22.945Z,21.00
2018-08-19T23:09:52.441Z,21.00
2018-08-19T23:12:22.426Z,21.00
2018-08-19T23:15:09.357Z,21.00
2018-08-19T23:17:38.668Z,20.90
2018-08-19T23:20:08.044Z,20.90
2018-08-19T23:22:37.297Z,20.90
2018-08-19T23:25:07.087Z,20.90
2018-08-19T23:27:36.420Z,20.90
2018-08-19T23:30:06.046Z,20.80
2018-08-19T23:32:35.334Z,20.80
2018-08-19T23:35:04.806Z,20.80
2018-08-19T23:37:34.107Z,20.80
2018-08-19T23:40:03.491Z,20.80
2018-08-19T23:42:32.808Z,20.80
2018-08-19T23:45:02.154Z,20.80
2018-08-19T23:47:31.510Z,20.80
2018-08-19T23:50:00.807Z,20.80
2018-08-19T23:52:30.109Z,20.80
2018-08-19T23:54:59.402Z,20.70
2018-08-19T23:57:28.704Z,20.60
2018-08-19T23:59:58.072Z,20.60
